Terminal Aerodrome Forecast
Issued by NWS

Current Version | Previous Version | Graphics & Text | Print | Product List | Glossary On
Versions: 1 2 3 4 5 6 7 8 9 10 11 12 13 14 15 16 17 18 19 20 21
000
FTUS41 KPBZ 192320
TAFMGW
TAF
KMGW 192320Z 2000/2024 14012G24KT P6SM -RA OVC050
      TEMPO 2000/2002 4SM -SHRA BKN025
     FM200200 13012KT P6SM -SHRA OVC035
     FM200500 14010KT 4SM -SHRA BR BKN012
     FM201200 16010G18KT P6SM BKN040
     FM201800 20010G20KT P6SM VCTS BKN035CB=

USA.gov is the U.S. government's official web portal to all federal, state and local government web resources and services.